sensor_id;sensor_type;location;lat;lon;timestamp;temperature;humidity
12841;DHT22;6487;48.626;12.486;2022-10-16T00:01:44;15.10;99.90
12841;DHT22;6487;48.626;12.486;2022-10-16T00:04:13;15.20;99.90
12841;DHT22;6487;48.626;12.486;2022-10-16T00:06:43;15.20;99.90
12841;DHT22;6487;48.626;12.486;2022-10-16T00:09:11;15.10;99.90
12841;DHT22;6487;48.626;12.486;2022-10-16T00:11:40;15.20;99.90
12841;DHT22;6487;48.626;12.486;2022-10-16T00:14:10;15.10;99.90
12841;DHT22;6487;48.626;12.486;2022-10-16T00:16:40;15.20;99.90
12841;DHT22;6487;48.626;12.486;2022-10-16T00:19:10;15.20;99.90
12841;DHT22;6487;48.626;12.486;2022-10-16T00:21:39;15.20;99.90
12841;DHT22;6487;48.626;12.486;2022-10-16T00:24:10;15.20;99.90
12841;DHT22;6487;48.626;12.486;2022-10-16T00:26:39;15.20;99.90
12841;DHT22;6487;48.626;12.486;2022-10-16T00:29:08;15.20;99.90
12841;DHT22;6487;48.626;12.486;2022-10-16T00:31:36;15.20;99.90
12841;DHT22;6487;48.626;12.486;2022-10-16T00:34:04;15.20;99.90
12841;DHT22;6487;48.626;12.486;2022-10-16T00:36:33;15.20;99.90
12841;DHT22;6487;48.626;12.486;2022-10-16T00:39:01;15.10;99.90
12841;DHT22;6487;48.626;12.486;2022-10-16T00:41:32;15.10;99.90
12841;DHT22;6487;48.626;12.486;2022-10-16T00:44:03;15.10;99.90
12841;DHT22;6487;48.626;12.486;2022-10-16T00:46:51;15.00;99.90
12841;DHT22;6487;48.626;12.486;2022-10-16T00:49:20;15.00;99.90
12841;DHT22;6487;48.626;12.486;2022-10-16T00:51:51;15.00;99.90
12841;DHT22;6487;48.626;12.486;2022-10-16T00:54:22;14.90;99.90
12841;DHT22;6487;48.626;12.486;2022-10-16T00:56:54;14.90;99.90
12841;DHT22;6487;48.626;12.486;2022-10-16T00:59:25;14.90;99.90
12841;DHT22;6487;48.626;12.486;2022-10-16T01:01:56;14.90;99.90
12841;DHT22;6487;48.626;12.486;2022-10-16T01:04:26;14.90;99.90
12841;DHT22;6487;48.626;12.486;2022-10-16T01:07:01;14.70;99.90
12841;DHT22;6487;48.626;12.486;2022-10-16T01:09:39;14.70;99.90
12841;DHT22;6487;48.626;12.486;2022-10-16T01:12:21;14.60;99.90
12841;DHT22;6487;48.626;12.486;2022-10-16T01:14:54;14.60;99.90
12841;DHT22;6487;48.626;12.486;2022-10-16T01:17:32;14.60;99.90
12841;DHT22;6487;48.626;12.486;2022-10-16T01:20:08;14.60;99.90
12841;DHT22;6487;48.626;12.486;2022-10-16T01:22:48;14.60;99.90
12841;DHT22;6487;48.626;12.486;2022-10-16T01:25:36;14.60;99.90
12841;DHT22;6487;48.626;12.486;2022-10-16T01:28:15;14.50;99.90
12841;DHT22;6487;48.626;12.486;2022-10-16T01:30:45;14.50;99.90
12841;DHT22;6487;48.626;12.486;2022-10-16T01:33:19;14.50;99.90
12841;DHT22;6487;48.626;12.486;2022-10-16T01:35:53;14.40;99.90
12841;DHT22;6487;48.626;12.486;2022-10-16T01:38:28;14.30;99.90
12841;DHT22;6487;48.626;12.486;2022-10-16T01:41:01;14.30;99.90
12841;DHT22;6487;48.626;12.486;2022-10-16T01:43:37;14.30;99.90
12841;DHT22;6487;48.626;12.486;2022-10-16T01:46:08;14.30;99.90
12841;DHT22;6487;48.626;12.486;2022-10-16T01:48:38;14.30;99.90
12841;DHT22;6487;48.626;12.486;2022-10-16T01:51:10;14.30;99.90
12841;DHT22;6487;48.626;12.486;2022-10-16T01:53:42;14.30;99.90
12841;DHT22;6487;48.626;12.486;2022-10-16T01:56:13;14.20;99.90
12841;DHT22;6487;48.626;12.486;2022-10-16T01:58:48;14.20;99.90
12841;DHT22;6487;48.626;12.486;2022-10-16T02:01:21;14.10;99.90
12841;DHT22;6487;48.626;12.486;2022-10-16T02:03:54;14.10;99.90
12841;DHT22;6487;48.626;12.486;2022-10-16T02:06:24;14.00;99.90
12841;DHT22;6487;48.626;12.486;2022-10-16T02:08:53;14.00;99.90
12841;DHT22;6487;48.626;12.486;2022-10-16T02:11:21;14.00;99.90
12841;DHT22;6487;48.626;12.486;2022-10-16T02:13:54;14.00;99.90
12841;DHT22;6487;48.626;12.486;2022-10-16T02:16:33;14.00;99.90
12841;DHT22;6487;48.626;12.486;2022-10-16T02:19:02;13.90;99.90
12841;DHT22;6487;48.626;12.486;2022-10-16T02:21:38;13.90;99.90
12841;DHT22;6487;48.626;12.486;2022-10-16T02:24:12;13.90;99.90
12841;DHT22;6487;48.626;12.486;2022-10-16T02:26:46;13.80;99.90
12841;DHT22;6487;48.626;12.486;2022-10-16T02:29:23;13.80;99.90
12841;DHT22;6487;48.626;12.486;2022-10-16T02:31:55;13.80;99.90
12841;DHT22;6487;48.626;12.486;2022-10-16T02:34:26;13.80;99.90
12841;DHT22;6487;48.626;12.486;2022-10-16T02:36:56;13.80;99.90
12841;DHT22;6487;48.626;12.486;2022-10-16T02:39:26;13.80;99.90
12841;DHT22;6487;48.626;12.486;2022-10-16T02:41:55;13.80;99.90
12841;DHT22;6487;48.626;12.486;2022-10-16T02:44:24;13.70;99.90
12841;DHT22;6487;48.626;12.486;2022-10-16T02:46:53;13.70;99.90
12841;DHT22;6487;48.626;12.486;2022-10-16T02:49:21;13.80;99.90
12841;DHT22;6487;48.626;12.486;2022-10-16T02:51:49;13.70;99.90
12841;DHT22;6487;48.626;12.486;2022-10-16T02:54:18;13.70;99.90
12841;DHT22;6487;48.626;12.486;2022-10-16T02:56:46;13.70;99.90
12841;DHT22;6487;48.626;12.486;2022-10-16T02:59:14;13.70;99.90
12841;DHT22;6487;48.626;12.486;2022-10-16T03:01:44;13.60;99.90
12841;DHT22;6487;48.626;12.486;2022-10-16T03:04:12;13.70;99.90
12841;DHT22;6487;48.626;12.486;2022-10-16T03:06:40;13.70;99.90
12841;DHT22;6487;48.626;12.486;2022-10-16T03:09:09;13.70;99.90
12841;DHT22;6487;48.626;12.486;2022-10-16T03:14:08;13.60;99.90
12841;DHT22;6487;48.626;12.486;2022-10-16T03:16:37;13.60;99.90
12841;DHT22;6487;48.626;12.486;2022-10-16T03:19:06;13.60;99.90
12841;DHT22;6487;48.626;12.486;2022-10-16T03:21:35;13.60;99.90
12841;DHT22;6487;48.626;12.486;2022-10-16T03:24:03;13.50;99.90
12841;DHT22;6487;48.626;12.486;2022-10-16T03:26:32;13.50;99.90
12841;DHT22;6487;48.626;12.486;2022-10-16T03:29:00;13.50;99.90
12841;DHT22;6487;48.626;12.486;2022-10-16T03:31:30;13.50;99.90
12841;DHT22;6487;48.626;12.486;2022-10-16T03:33:58;13.50;99.90
12841;DHT22;6487;48.626;12.486;2022-10-16T03:36:28;13.40;99.90
12841;DHT22;6487;48.626;12.486;2022-10-16T03:38:56;13.30;99.90
12841;DHT22;6487;48.626;12.486;2022-10-16T03:41:24;13.30;99.90
12841;DHT22;6487;48.626;12.486;2022-10-16T03:43:53;13.30;99.90
12841;DHT22;6487;48.626;12.486;2022-10-16T03:46:21;13.30;99.90
12841;DHT22;6487;48.626;12.486;2022-10-16T03:48:49;13.30;99.90
12841;DHT22;6487;48.626;12.486;2022-10-16T03:51:17;13.20;99.90
12841;DHT22;6487;48.626;12.486;2022-10-16T03:53:47;13.10;99.90
12841;DHT22;6487;48.626;12.486;2022-10-16T03:56:15;13.20;99.90
12841;DHT22;6487;48.626;12.486;2022-10-16T03:58:43;13.20;99.90
12841;DHT22;6487;48.626;12.486;2022-10-16T04:01:12;13.20;99.90
12841;DHT22;6487;48.626;12.486;2022-10-16T04:03:40;13.20;99.90
12841;DHT22;6487;48.626;12.486;2022-10-16T04:06:09;13.20;99.90
12841;DHT22;6487;48.626;12.486;2022-10-16T04:08:37;13.00;99.90
12841;DHT22;6487;48.626;12.486;2022-10-16T04:11:07;13.10;99.90
12841;DHT22;6487;48.626;12.486;2022-10-16T04:13:35;13.20;99.90
12841;DHT22;6487;48.626;12.486;2022-10-16T04:16:04;13.20;99.90
12841;DHT22;6487;48.626;12.486;2022-10-16T04:18:32;13.20;99.90
12841;DHT22;6487;48.626;12.486;2022-10-16T04:21:05;13.10;99.90
12841;DHT22;6487;48.626;12.486;2022-10-16T04:23:33;13.10;99.90
12841;DHT22;6487;48.626;12.486;2022-10-16T04:26:02;13.10;99.90
12841;DHT22;6487;48.626;12.486;2022-10-16T04:28:32;13.10;99.90
12841;DHT22;6487;48.626;12.486;2022-10-16T04:31:00;13.10;99.90
12841;DHT22;6487;48.626;12.486;2022-10-16T04:33:31;13.10;99.90
12841;DHT22;6487;48.626;12.486;2022-10-16T04:36:00;13.00;99.90
12841;DHT22;6487;48.626;12.486;2022-10-16T04:38:29;12.90;99.90
12841;DHT22;6487;48.626;12.486;2022-10-16T04:40:58;12.90;99.90
12841;DHT22;6487;48.626;12.486;2022-10-16T04:43:26;12.90;99.90
12841;DHT22;6487;48.626;12.486;2022-10-16T04:45:56;12.80;99.90
12841;DHT22;6487;48.626;12.486;2022-10-16T04:48:24;12.80;99.90
12841;DHT22;6487;48.626;12.486;2022-10-16T04:50:52;12.80;99.90
12841;DHT22;6487;48.626;12.486;2022-10-16T04:53:21;12.80;99.90
12841;DHT22;6487;48.626;12.486;2022-10-16T04:55:49;12.80;99.90
12841;DHT22;6487;48.626;12.486;2022-10-16T04:58:18;12.80;99.90
12841;DHT22;6487;48.626;12.486;2022-10-16T05:00:46;12.80;99.90
12841;DHT22;6487;48.626;12.486;2022-10-16T05:03:16;12.80;99.90
12841;DHT22;6487;48.626;12.486;2022-10-16T05:05:45;12.80;99.90
12841;DHT22;6487;48.626;12.486;2022-10-16T05:08:14;12.80;99.90
12841;DHT22;6487;48.626;12.486;2022-10-16T05:10:44;12.80;99.90
12841;DHT22;6487;48.626;12.486;2022-10-16T05:13:12;12.70;99.90
12841;DHT22;6487;48.626;12.486;2022-10-16T05:15:41;12.80;99.90
12841;DHT22;6487;48.626;12.486;2022-10-16T05:18:09;12.90;99.90
12841;DHT22;6487;48.626;12.486;2022-10-16T05:20:39;12.80;99.90
12841;DHT22;6487;48.626;12.486;2022-10-16T05:23:07;12.80;99.90
12841;DHT22;6487;48.626;12.486;2022-10-16T05:25:36;12.80;99.90
12841;DHT22;6487;48.626;12.486;2022-10-16T05:28:05;12.90;99.90
12841;DHT22;6487;48.626;12.486;2022-10-16T05:30:33;12.70;99.90
12841;DHT22;6487;48.626;12.486;2022-10-16T05:33:01;12.80;99.90
12841;DHT22;6487;48.626;12.486;2022-10-16T05:35:30;12.70;99.90
12841;DHT22;6487;48.626;12.486;2022-10-16T05:38:00;12.80;99.90
12841;DHT22;6487;48.626;12.486;2022-10-16T05:40:28;12.80;99.90
12841;DHT22;6487;48.626;12.486;2022-10-16T05:42:56;12.80;99.90
12841;DHT22;6487;48.626;12.486;2022-10-16T05:45:24;12.90;99.90
12841;DHT22;6487;48.626;12.486;2022-10-16T05:47:53;12.90;99.90
12841;DHT22;6487;48.626;12.486;2022-10-16T05:50:21;12.80;99.90
12841;DHT22;6487;48.626;12.486;2022-10-16T05:52:49;12.80;99.90
12841;DHT22;6487;48.626;12.486;2022-10-16T05:55:19;12.90;99.90
12841;DHT22;6487;48.626;12.486;2022-10-16T05:57:47;13.00;99.90
12841;DHT22;6487;48.626;12.486;2022-10-16T06:00:15;13.00;99.90
12841;DHT22;6487;48.626;12.486;2022-10-16T06:02:44;13.00;99.90
12841;DHT22;6487;48.626;12.486;2022-10-16T06:05:12;13.00;99.90
12841;DHT22;6487;48.626;12.486;2022-10-16T06:07:41;13.10;99.90
12841;DHT22;6487;48.626;12.486;2022-10-16T06:10:09;13.10;99.90
12841;DHT22;6487;48.626;12.486;2022-10-16T06:12:39;13.20;99.90
12841;DHT22;6487;48.626;12.486;2022-10-16T06:15:08;13.20;99.90
12841;DHT22;6487;48.626;12.486;2022-10-16T06:17:36;13.20;99.90
12841;DHT22;6487;48.626;12.486;2022-10-16T06:20:05;13.20;99.90
12841;DHT22;6487;48.626;12.486;2022-10-16T06:22:34;13.20;99.90
12841;DHT22;6487;48.626;12.486;2022-10-16T06:25:04;13.20;99.90
12841;DHT22;6487;48.626;12.486;2022-10-16T06:27:33;13.20;99.90
12841;DHT22;6487;48.626;12.486;2022-10-16T06:30:03;13.30;99.90
12841;DHT22;6487;48.626;12.486;2022-10-16T06:32:32;13.30;99.90
12841;DHT22;6487;48.626;12.486;2022-10-16T06:35:00;13.40;99.90
12841;DHT22;6487;48.626;12.486;2022-10-16T06:37:28;13.40;99.90
12841;DHT22;6487;48.626;12.486;2022-10-16T06:39:57;13.30;99.90
12841;DHT22;6487;48.626;12.486;2022-10-16T06:42:27;13.40;99.90
12841;DHT22;6487;48.626;12.486;2022-10-16T06:44:55;13.40;99.90
12841;DHT22;6487;48.626;12.486;2022-10-16T06:47:25;13.40;99.90
12841;DHT22;6487;48.626;12.486;2022-10-16T06:49:53;13.40;99.90
12841;DHT22;6487;48.626;12.486;2022-10-16T06:52:21;13.50;99.90
12841;DHT22;6487;48.626;12.486;2022-10-16T06:54:50;13.50;99.90
12841;DHT22;6487;48.626;12.486;2022-10-16T06:57:18;13.50;99.90
12841;DHT22;6487;48.626;12.486;2022-10-16T06:59:47;13.50;99.90
12841;DHT22;6487;48.626;12.486;2022-10-16T07:02:20;13.60;99.90
12841;DHT22;6487;48.626;12.486;2022-10-16T07:04:51;13.70;99.90
12841;DHT22;6487;48.626;12.486;2022-10-16T07:07:19;13.90;99.90
12841;DHT22;6487;48.626;12.486;2022-10-16T07:09:47;14.00;99.90
12841;DHT22;6487;48.626;12.486;2022-10-16T07:12:16;14.10;99.90
12841;DHT22;6487;48.626;12.486;2022-10-16T07:14:44;14.20;99.90
12841;DHT22;6487;48.626;12.486;2022-10-16T07:17:12;14.20;99.90
12841;DHT22;6487;48.626;12.486;2022-10-16T07:19:40;14.20;99.90
12841;DHT22;6487;48.626;12.486;2022-10-16T07:22:10;14.30;99.90
12841;DHT22;6487;48.626;12.486;2022-10-16T07:24:38;14.50;99.90
12841;DHT22;6487;48.626;12.486;2022-10-16T07:27:07;14.70;99.90
12841;DHT22;6487;48.626;12.486;2022-10-16T07:29:35;15.00;99.90
12841;DHT22;6487;48.626;12.486;2022-10-16T07:32:03;15.20;99.90
12841;DHT22;6487;48.626;12.486;2022-10-16T07:34:32;15.40;99.90
12841;DHT22;6487;48.626;12.486;2022-10-16T07:37:00;15.60;99.90
12841;DHT22;6487;48.626;12.486;2022-10-16T07:39:30;15.80;99.90
12841;DHT22;6487;48.626;12.486;2022-10-16T07:41:58;16.00;99.90
12841;DHT22;6487;48.626;12.486;2022-10-16T07:44:26;16.20;99.90
12841;DHT22;6487;48.626;12.486;2022-10-16T07:46:54;16.40;99.90
12841;DHT22;6487;48.626;12.486;2022-10-16T07:49:23;16.50;99.90
12841;DHT22;6487;48.626;12.486;2022-10-16T07:51:51;16.50;99.90
12841;DHT22;6487;48.626;12.486;2022-10-16T07:54:19;16.60;99.90
12841;DHT22;6487;48.626;12.486;2022-10-16T07:56:49;16.60;99.90
12841;DHT22;6487;48.626;12.486;2022-10-16T07:59:17;16.50;99.90
12841;DHT22;6487;48.626;12.486;2022-10-16T08:01:46;16.50;99.90
12841;DHT22;6487;48.626;12.486;2022-10-16T08:04:14;16.50;99.90
12841;DHT22;6487;48.626;12.486;2022-10-16T08:06:42;16.50;99.90
12841;DHT22;6487;48.626;12.486;2022-10-16T08:09:10;16.70;99.90
12841;DHT22;6487;48.626;12.486;2022-10-16T08:11:39;16.70;99.90
12841;DHT22;6487;48.626;12.486;2022-10-16T08:14:08;16.70;99.90
12841;DHT22;6487;48.626;12.486;2022-10-16T08:16:37;16.70;99.90
12841;DHT22;6487;48.626;12.486;2022-10-16T08:19:05;16.70;99.90
12841;DHT22;6487;48.626;12.486;2022-10-16T08:21:33;16.80;99.90
12841;DHT22;6487;48.626;12.486;2022-10-16T08:24:01;16.80;99.90
12841;DHT22;6487;48.626;12.486;2022-10-16T08:26:30;16.90;99.90
12841;DHT22;6487;48.626;12.486;2022-10-16T08:28:58;17.00;99.90
12841;DHT22;6487;48.626;12.486;2022-10-16T08:31:28;17.10;99.90
12841;DHT22;6487;48.626;12.486;2022-10-16T08:33:56;17.20;99.90
12841;DHT22;6487;48.626;12.486;2022-10-16T08:36:24;17.30;99.90
12841;DHT22;6487;48.626;12.486;2022-10-16T08:38:53;17.30;99.90
12841;DHT22;6487;48.626;12.486;2022-10-16T08:41:33;17.40;99.90
12841;DHT22;6487;48.626;12.486;2022-10-16T08:44:34;17.30;99.90
12841;DHT22;6487;48.626;12.486;2022-10-16T08:47:17;17.40;99.90
12841;DHT22;6487;48.626;12.486;2022-10-16T08:49:56;17.80;99.90
12841;DHT22;6487;48.626;12.486;2022-10-16T08:52:29;18.10;99.90
12841;DHT22;6487;48.626;12.486;2022-10-16T08:55:00;18.40;99.90
12841;DHT22;6487;48.626;12.486;2022-10-16T08:57:29;18.70;99.90
12841;DHT22;6487;48.626;12.486;2022-10-16T09:00:01;18.90;99.90
12841;DHT22;6487;48.626;12.486;2022-10-16T09:02:37;19.20;99.90
12841;DHT22;6487;48.626;12.486;2022-10-16T09:05:24;19.40;99.90
12841;DHT22;6487;48.626;12.486;2022-10-16T09:08:11;19.80;99.90
12841;DHT22;6487;48.626;12.486;2022-10-16T09:10:49;20.00;99.90
12841;DHT22;6487;48.626;12.486;2022-10-16T09:13:24;20.40;99.90
12841;DHT22;6487;48.626;12.486;2022-10-16T09:16:01;20.70;99.90
12841;DHT22;6487;48.626;12.486;2022-10-16T09:18:45;20.80;99.90
12841;DHT22;6487;48.626;12.486;2022-10-16T09:21:21;20.70;99.90
12841;DHT22;6487;48.626;12.486;2022-10-16T09:23:51;20.80;99.90
12841;DHT22;6487;48.626;12.486;2022-10-16T09:26:19;21.10;99.90
12841;DHT22;6487;48.626;12.486;2022-10-16T09:28:51;21.20;99.90
12841;DHT22;6487;48.626;12.486;2022-10-16T09:31:22;21.50;99.90
12841;DHT22;6487;48.626;12.486;2022-10-16T09:33:55;21.80;99.90
12841;DHT22;6487;48.626;12.486;2022-10-16T09:36:26;22.10;99.90
12841;DHT22;6487;48.626;12.486;2022-10-16T09:39:03;22.20;99.90
12841;DHT22;6487;48.626;12.486;2022-10-16T09:41:34;22.10;99.90
12841;DHT22;6487;48.626;12.486;2022-10-16T09:44:06;22.10;99.90
12841;DHT22;6487;48.626;12.486;2022-10-16T09:46:45;22.30;99.90
12841;DHT22;6487;48.626;12.486;2022-10-16T09:49:21;22.30;99.90
12841;DHT22;6487;48.626;12.486;2022-10-16T09:52:02;22.40;99.60
12841;DHT22;6487;48.626;12.486;2022-10-16T09:54:31;22.50;99.90
12841;DHT22;6487;48.626;12.486;2022-10-16T09:57:12;22.60;99.90
12841;DHT22;6487;48.626;12.486;2022-10-16T09:59:46;23.00;99.70
12841;DHT22;6487;48.626;12.486;2022-10-16T10:02:16;23.20;99.30
12841;DHT22;6487;48.626;12.486;2022-10-16T10:04:50;23.40;99.90
12841;DHT22;6487;48.626;12.486;2022-10-16T10:07:26;23.40;98.60
12841;DHT22;6487;48.626;12.486;2022-10-16T10:09:56;23.50;97.80
12841;DHT22;6487;48.626;12.486;2022-10-16T10:12:26;23.40;98.40
12841;DHT22;6487;48.626;12.486;2022-10-16T10:14:57;23.60;98.10
12841;DHT22;6487;48.626;12.486;2022-10-16T10:17:31;23.90;98.20
12841;DHT22;6487;48.626;12.486;2022-10-16T10:20:15;24.00;98.30
12841;DHT22;6487;48.626;12.486;2022-10-16T10:22:50;24.10;97.90
12841;DHT22;6487;48.626;12.486;2022-10-16T10:25:37;24.00;97.70
12841;DHT22;6487;48.626;12.486;2022-10-16T10:28:25;24.20;97.90
12841;DHT22;6487;48.626;12.486;2022-10-16T10:31:06;24.20;96.40
12841;DHT22;6487;48.626;12.486;2022-10-16T10:33:42;24.20;98.10
12841;DHT22;6487;48.626;12.486;2022-10-16T10:36:25;24.60;97.30
12841;DHT22;6487;48.626;12.486;2022-10-16T10:38:59;24.70;96.80
12841;DHT22;6487;48.626;12.486;2022-10-16T10:41:53;24.70;95.50
12841;DHT22;6487;48.626;12.486;2022-10-16T10:44:41;24.50;95.30
12841;DHT22;6487;48.626;12.486;2022-10-16T10:47:26;24.20;96.60
12841;DHT22;6487;48.626;12.486;2022-10-16T10:50:12;24.00;95.90
12841;DHT22;6487;48.626;12.486;2022-10-16T10:52:54;24.30;96.10
12841;DHT22;6487;48.626;12.486;2022-10-16T10:55:34;24.40;96.00
12841;DHT22;6487;48.626;12.486;2022-10-16T11:01:17;24.70;96.90
12841;DHT22;6487;48.626;12.486;2022-10-16T11:04:14;24.60;95.90
12841;DHT22;6487;48.626;12.486;2022-10-16T11:07:02;24.60;95.20
12841;DHT22;6487;48.626;12.486;2022-10-16T11:09:36;24.70;96.40
12841;DHT22;6487;48.626;12.486;2022-10-16T11:12:11;24.90;95.60
12841;DHT22;6487;48.626;12.486;2022-10-16T11:14:46;25.10;95.80
12841;DHT22;6487;48.626;12.486;2022-10-16T11:17:19;25.20;95.40
12841;DHT22;6487;48.626;12.486;2022-10-16T11:19:55;25.20;95.70
12841;DHT22;6487;48.626;12.486;2022-10-16T11:22:30;25.30;95.50
12841;DHT22;6487;48.626;12.486;2022-10-16T11:25:06;25.20;95.60
12841;DHT22;6487;48.626;12.486;2022-10-16T11:27:45;25.50;95.60
12841;DHT22;6487;48.626;12.486;2022-10-16T11:30:21;25.60;95.80
12841;DHT22;6487;48.626;12.486;2022-10-16T11:32:59;25.60;95.60
12841;DHT22;6487;48.626;12.486;2022-10-16T11:35:38;25.60;95.70
12841;DHT22;6487;48.626;12.486;2022-10-16T11:38:14;25.20;95.90
12841;DHT22;6487;48.626;12.486;2022-10-16T11:40:48;25.20;95.50
12841;DHT22;6487;48.626;12.486;2022-10-16T11:43:24;25.30;96.10
12841;DHT22;6487;48.626;12.486;2022-10-16T11:45:55;25.00;96.80
12841;DHT22;6487;48.626;12.486;2022-10-16T11:48:30;25.00;95.70
12841;DHT22;6487;48.626;12.486;2022-10-16T11:51:07;25.20;96.40
12841;DHT22;6487;48.626;12.486;2022-10-16T11:53:45;25.30;95.50
12841;DHT22;6487;48.626;12.486;2022-10-16T11:56:17;25.30;95.00
12841;DHT22;6487;48.626;12.486;2022-10-16T11:58:54;25.40;95.60
12841;DHT22;6487;48.626;12.486;2022-10-16T12:01:29;25.50;95.60
12841;DHT22;6487;48.626;12.486;2022-10-16T12:04:14;25.60;94.80
12841;DHT22;6487;48.626;12.486;2022-10-16T12:06:50;25.70;94.60
12841;DHT22;6487;48.626;12.486;2022-10-16T12:09:26;25.70;94.30
12841;DHT22;6487;48.626;12.486;2022-10-16T12:11:56;25.70;95.80
12841;DHT22;6487;48.626;12.486;2022-10-16T12:14:37;25.90;96.10
12841;DHT22;6487;48.626;12.486;2022-10-16T12:17:33;25.90;94.80
12841;DHT22;6487;48.626;12.486;2022-10-16T12:20:28;26.10;95.60
12841;DHT22;6487;48.626;12.486;2022-10-16T12:23:00;26.20;95.00
12841;DHT22;6487;48.626;12.486;2022-10-16T12:25:32;26.00;95.70
12841;DHT22;6487;48.626;12.486;2022-10-16T12:28:04;26.00;95.30
12841;DHT22;6487;48.626;12.486;2022-10-16T12:30:35;26.00;94.80
12841;DHT22;6487;48.626;12.486;2022-10-16T12:33:05;26.10;94.90
12841;DHT22;6487;48.626;12.486;2022-10-16T12:35:44;26.30;96.20
12841;DHT22;6487;48.626;12.486;2022-10-16T12:38:16;26.40;94.40
12841;DHT22;6487;48.626;12.486;2022-10-16T12:40:47;26.50;93.90
12841;DHT22;6487;48.626;12.486;2022-10-16T12:43:37;26.70;95.10
12841;DHT22;6487;48.626;12.486;2022-10-16T12:46:23;26.80;95.20
12841;DHT22;6487;48.626;12.486;2022-10-16T12:49:28;26.80;95.80
12841;DHT22;6487;48.626;12.486;2022-10-16T12:51:58;26.90;96.20
12841;DHT22;6487;48.626;12.486;2022-10-16T12:54:29;27.20;94.30
12841;DHT22;6487;48.626;12.486;2022-10-16T12:57:09;27.10;94.00
12841;DHT22;6487;48.626;12.486;2022-10-16T12:59:53;26.80;93.00
12841;DHT22;6487;48.626;12.486;2022-10-16T13:02:54;26.70;94.50
12841;DHT22;6487;48.626;12.486;2022-10-16T13:05:46;26.40;93.20
12841;DHT22;6487;48.626;12.486;2022-10-16T13:08:35;26.20;93.40
12841;DHT22;6487;48.626;12.486;2022-10-16T13:11:26;26.20;94.90
12841;DHT22;6487;48.626;12.486;2022-10-16T13:14:16;26.10;96.70
12841;DHT22;6487;48.626;12.486;2022-10-16T13:17:00;26.20;96.70
12841;DHT22;6487;48.626;12.486;2022-10-16T13:19:38;26.10;96.50
12841;DHT22;6487;48.626;12.486;2022-10-16T13:22:20;26.10;96.20
12841;DHT22;6487;48.626;12.486;2022-10-16T13:25:05;26.10;97.10
12841;DHT22;6487;48.626;12.486;2022-10-16T13:27:46;25.80;97.00
12841;DHT22;6487;48.626;12.486;2022-10-16T13:30:23;25.80;97.80
12841;DHT22;6487;48.626;12.486;2022-10-16T13:33:01;25.70;97.10
12841;DHT22;6487;48.626;12.486;2022-10-16T13:35:33;25.60;98.20
12841;DHT22;6487;48.626;12.486;2022-10-16T13:38:13;25.50;98.00
12841;DHT22;6487;48.626;12.486;2022-10-16T13:40:54;25.60;96.60
12841;DHT22;6487;48.626;12.486;2022-10-16T13:43:28;25.60;96.90
12841;DHT22;6487;48.626;12.486;2022-10-16T13:46:01;25.50;96.70
12841;DHT22;6487;48.626;12.486;2022-10-16T13:48:33;25.50;98.40
12841;DHT22;6487;48.626;12.486;2022-10-16T13:51:11;25.20;96.20
12841;DHT22;6487;48.626;12.486;2022-10-16T13:53:41;25.20;96.80
12841;DHT22;6487;48.626;12.486;2022-10-16T13:56:12;25.00;97.10
12841;DHT22;6487;48.626;12.486;2022-10-16T13:58:42;25.00;95.80
12841;DHT22;6487;48.626;12.486;2022-10-16T14:01:16;25.00;98.60
12841;DHT22;6487;48.626;12.486;2022-10-16T14:03:48;24.90;98.90
12841;DHT22;6487;48.626;12.486;2022-10-16T14:06:20;24.90;98.80
12841;DHT22;6487;48.626;12.486;2022-10-16T14:09:02;25.00;98.10
12841;DHT22;6487;48.626;12.486;2022-10-16T14:11:34;24.90;98.70
12841;DHT22;6487;48.626;12.486;2022-10-16T14:14:10;24.90;99.70
12841;DHT22;6487;48.626;12.486;2022-10-16T14:16:41;24.70;99.90
12841;DHT22;6487;48.626;12.486;2022-10-16T14:19:19;24.70;99.30
12841;DHT22;6487;48.626;12.486;2022-10-16T14:21:49;24.70;99.70
12841;DHT22;6487;48.626;12.486;2022-10-16T14:24:27;24.70;99.80
12841;DHT22;6487;48.626;12.486;2022-10-16T14:26:59;24.60;99.60
12841;DHT22;6487;48.626;12.486;2022-10-16T14:29:29;24.60;99.90
12841;DHT22;6487;48.626;12.486;2022-10-16T14:31:59;24.60;99.90
12841;DHT22;6487;48.626;12.486;2022-10-16T14:34:32;24.50;99.90
12841;DHT22;6487;48.626;12.486;2022-10-16T14:37:08;24.50;99.90
12841;DHT22;6487;48.626;12.486;2022-10-16T14:39:41;24.40;99.90
12841;DHT22;6487;48.626;12.486;2022-10-16T14:42:14;24.40;99.90
12841;DHT22;6487;48.626;12.486;2022-10-16T14:44:44;24.30;99.90
12841;DHT22;6487;48.626;12.486;2022-10-16T14:47:14;24.10;99.90
12841;DHT22;6487;48.626;12.486;2022-10-16T14:49:50;24.10;99.90
12841;DHT22;6487;48.626;12.486;2022-10-16T14:52:19;24.10;99.90
12841;DHT22;6487;48.626;12.486;2022-10-16T14:54:49;23.90;99.90
12841;DHT22;6487;48.626;12.486;2022-10-16T14:57:19;23.80;99.90
12841;DHT22;6487;48.626;12.486;2022-10-16T14:59:49;23.70;99.90
12841;DHT22;6487;48.626;12.486;2022-10-16T15:02:25;23.60;99.90
12841;DHT22;6487;48.626;12.486;2022-10-16T15:04:57;23.30;99.90
12841;DHT22;6487;48.626;12.486;2022-10-16T15:07:27;23.20;99.90
12841;DHT22;6487;48.626;12.486;2022-10-16T15:09:56;23.00;99.90
12841;DHT22;6487;48.626;12.486;2022-10-16T15:12:25;22.90;99.90
12841;DHT22;6487;48.626;12.486;2022-10-16T15:14:53;22.80;99.90
12841;DHT22;6487;48.626;12.486;2022-10-16T15:17:21;22.90;99.90
12841;DHT22;6487;48.626;12.486;2022-10-16T15:19:50;22.70;99.90
12841;DHT22;6487;48.626;12.486;2022-10-16T15:22:20;22.70;99.90
12841;DHT22;6487;48.626;12.486;2022-10-16T15:24:50;22.70;99.90
12841;DHT22;6487;48.626;12.486;2022-10-16T15:27:18;22.70;99.90
12841;DHT22;6487;48.626;12.486;2022-10-16T15:29:46;22.50;99.90
12841;DHT22;6487;48.626;12.486;2022-10-16T15:32:14;22.40;99.90
12841;DHT22;6487;48.626;12.486;2022-10-16T15:34:43;22.30;99.90
12841;DHT22;6487;48.626;12.486;2022-10-16T15:37:11;22.30;99.90
12841;DHT22;6487;48.626;12.486;2022-10-16T15:39:41;22.20;99.90
12841;DHT22;6487;48.626;12.486;2022-10-16T15:42:10;22.30;99.90
12841;DHT22;6487;48.626;12.486;2022-10-16T15:44:38;22.20;99.90
12841;DHT22;6487;48.626;12.486;2022-10-16T15:47:07;22.20;99.90
12841;DHT22;6487;48.626;12.486;2022-10-16T15:49:36;22.20;99.90
12841;DHT22;6487;48.626;12.486;2022-10-16T15:52:05;22.10;99.90
12841;DHT22;6487;48.626;12.486;2022-10-16T15:54:33;22.10;99.90
12841;DHT22;6487;48.626;12.486;2022-10-16T15:57:03;22.10;99.90
12841;DHT22;6487;48.626;12.486;2022-10-16T15:59:31;22.00;99.90
12841;DHT22;6487;48.626;12.486;2022-10-16T16:01:59;21.80;99.90
12841;DHT22;6487;48.626;12.486;2022-10-16T16:04:29;21.70;99.90
12841;DHT22;6487;48.626;12.486;2022-10-16T16:07:09;21.70;99.90
12841;DHT22;6487;48.626;12.486;2022-10-16T16:09:38;21.70;99.90